createdAt,value
2022-08-27T00:01:22.102Z,19.60
2022-08-27T00:03:49.057Z,19.50
2022-08-27T00:06:17.563Z,19.50
2022-08-27T00:08:47.900Z,19.60
2022-08-27T00:11:16.837Z,19.50
2022-08-27T00:13:45.162Z,19.50
2022-08-27T00:16:15.066Z,19.40
2022-08-27T00:18:43.624Z,19.50
2022-08-27T00:21:16.258Z,19.40
2022-08-27T00:23:43.782Z,19.40
2022-08-27T00:26:10.835Z,19.50
2022-08-27T00:28:37.882Z,19.40
2022-08-27T00:31:05.516Z,19.40
2022-08-27T00:33:32.567Z,19.30
2022-08-27T00:35:59.916Z,19.30
2022-08-27T00:38:26.934Z,19.20
2022-08-27T00:40:54.024Z,19.10
2022-08-27T00:43:23.580Z,19.30
2022-08-27T00:45:53.379Z,19.20
2022-08-27T00:48:24.274Z,19.20
2022-08-27T00:50:55.429Z,19.20
2022-08-27T00:53:26.623Z,19.10
2022-08-27T00:55:58.664Z,19.30
2022-08-27T00:58:41.365Z,19.20
2022-08-27T01:01:13.228Z,19.20
2022-08-27T01:03:41.582Z,19.10
2022-08-27T01:06:16.031Z,19.10
2022-08-27T01:08:53.891Z,19.20
2022-08-27T01:11:21.243Z,19.20
2022-08-27T01:14:00.179Z,19.10
2022-08-27T01:16:33.692Z,19.10
2022-08-27T01:19:01.343Z,19.00
2022-08-27T01:21:53.312Z,18.90
2022-08-27T01:24:46.842Z,18.80
2022-08-27T01:27:22.089Z,18.80
2022-08-27T01:29:49.275Z,18.80
2022-08-27T01:32:21.968Z,18.70
2022-08-27T01:34:50.000Z,18.70
2022-08-27T01:37:24.016Z,18.70
2022-08-27T01:39:53.087Z,18.60
2022-08-27T01:42:24.989Z,18.50
2022-08-27T01:44:58.708Z,18.60
2022-08-27T01:47:30.296Z,18.50
2022-08-27T01:49:59.039Z,18.50
2022-08-27T01:52:28.900Z,18.50
2022-08-27T01:54:56.256Z,18.50
2022-08-27T01:57:26.006Z,18.40
2022-08-27T01:59:57.674Z,18.50
2022-08-27T02:02:24.823Z,18.40
2022-08-27T02:04:52.244Z,18.50
2022-08-27T02:07:19.384Z,18.40
2022-08-27T02:09:46.430Z,18.40
2022-08-27T02:12:13.648Z,18.30
2022-08-27T02:14:40.507Z,18.10
2022-08-27T02:17:07.465Z,18.10
2022-08-27T02:19:34.451Z,18.00
2022-08-27T02:22:01.340Z,18.00
2022-08-27T02:24:29.120Z,18.20
2022-08-27T02:26:56.863Z,18.20
2022-08-27T02:29:24.552Z,18.30
2022-08-27T02:31:51.436Z,18.20
2022-08-27T02:34:19.040Z,18.10
2022-08-27T02:36:46.754Z,18.20
2022-08-27T02:39:13.907Z,18.20
2022-08-27T02:41:40.822Z,18.20
2022-08-27T02:44:10.370Z,18.10
2022-08-27T02:46:39.329Z,18.00
2022-08-27T02:49:06.429Z,18.10
2022-08-27T02:51:33.537Z,18.10
2022-08-27T02:54:01.975Z,18.20
2022-08-27T02:56:29.029Z,18.20
2022-08-27T02:58:55.911Z,18.20
2022-08-27T03:01:22.927Z,18.20
2022-08-27T03:03:49.845Z,18.30
2022-08-27T03:06:16.704Z,18.30
2022-08-27T03:08:52.855Z,18.20
2022-08-27T03:11:22.514Z,18.20
2022-08-27T03:13:49.554Z,18.20
2022-08-27T03:16:16.447Z,18.20
2022-08-27T03:18:43.560Z,18.10
2022-08-27T03:21:21.019Z,18.20
2022-08-27T03:23:48.751Z,18.00
2022-08-27T03:26:16.138Z,17.90
2022-08-27T03:28:43.136Z,18.10
2022-08-27T03:31:17.519Z,18.10
2022-08-27T03:33:44.502Z,18.10
2022-08-27T03:36:11.473Z,18.00
2022-08-27T03:38:38.447Z,18.20
2022-08-27T03:41:06.708Z,18.10
2022-08-27T03:43:33.889Z,18.10
2022-08-27T03:46:02.380Z,18.20
2022-08-27T03:48:30.975Z,18.10
2022-08-27T03:50:57.945Z,18.00
2022-08-27T03:53:24.884Z,17.80
2022-08-27T03:55:51.834Z,17.80
2022-08-27T03:58:18.673Z,17.90
2022-08-27T04:00:46.029Z,17.90
2022-08-27T04:03:14.377Z,18.00
2022-08-27T04:05:45.306Z,17.80
2022-08-27T04:08:13.485Z,17.80
2022-08-27T04:10:43.395Z,17.80
2022-08-27T04:13:10.419Z,17.80
2022-08-27T04:15:40.674Z,17.90
2022-08-27T04:18:07.864Z,18.00
2022-08-27T04:20:35.938Z,17.80
2022-08-27T04:23:04.229Z,17.90
2022-08-27T04:25:31.721Z,17.80
2022-08-27T04:27:58.998Z,17.90
2022-08-27T04:30:25.870Z,18.00
2022-08-27T04:32:52.759Z,18.10
2022-08-27T04:35:19.605Z,17.90
2022-08-27T04:37:46.476Z,17.80
2022-08-27T04:40:13.350Z,17.90
2022-08-27T04:42:40.254Z,18.00
2022-08-27T04:45:07.608Z,17.90
2022-08-27T04:47:35.024Z,18.00
2022-08-27T04:50:05.674Z,18.00
2022-08-27T04:52:32.869Z,18.00
2022-08-27T04:55:00.122Z,18.00
2022-08-27T04:57:27.894Z,18.00
2022-08-27T04:59:55.018Z,17.90
2022-08-27T05:02:21.836Z,18.00
2022-08-27T05:04:48.740Z,18.10
2022-08-27T05:07:15.698Z,18.00
2022-08-27T05:09:42.568Z,17.90
2022-08-27T05:12:09.401Z,17.90
2022-08-27T05:14:36.350Z,17.80
2022-08-27T05:17:03.582Z,17.80
2022-08-27T05:19:30.513Z,17.80
2022-08-27T05:21:57.505Z,17.70
2022-08-27T05:24:24.772Z,17.70
2022-08-27T05:26:51.719Z,17.60
2022-08-27T05:29:18.665Z,17.70
2022-08-27T05:31:47.925Z,17.60
2022-08-27T05:34:16.858Z,17.50
2022-08-27T05:36:51.856Z,17.50
2022-08-27T05:39:18.736Z,17.60
2022-08-27T05:41:45.677Z,17.70
2022-08-27T05:44:40.019Z,17.70
2022-08-27T05:46:59.548Z,17.60
2022-08-27T05:49:26.495Z,17.60
2022-08-27T05:51:53.464Z,17.60
2022-08-27T05:54:20.487Z,17.60
2022-08-27T05:56:49.374Z,17.60
2022-08-27T05:59:35.172Z,17.70
2022-08-27T06:02:03.003Z,17.60
2022-08-27T06:04:30.002Z,17.60
2022-08-27T06:06:57.017Z,17.50
2022-08-27T06:09:26.510Z,17.50
2022-08-27T06:11:54.671Z,17.60
2022-08-27T06:14:22.044Z,17.60
2022-08-27T06:16:48.944Z,17.50
2022-08-27T06:19:16.356Z,17.60
2022-08-27T06:21:43.559Z,17.70
2022-08-27T06:24:15.116Z,17.70
2022-08-27T06:26:44.854Z,17.60
2022-08-27T06:29:13.204Z,17.60
2022-08-27T06:31:40.690Z,17.70
2022-08-27T06:34:09.128Z,17.70
2022-08-27T06:36:38.689Z,17.50
2022-08-27T06:39:07.592Z,17.60
2022-08-27T06:41:35.249Z,17.70
2022-08-27T06:44:02.706Z,17.70
2022-08-27T06:46:29.935Z,17.70
2022-08-27T06:49:00.183Z,17.80
2022-08-27T06:51:29.880Z,17.90
2022-08-27T06:54:01.120Z,17.90
2022-08-27T06:56:29.360Z,17.80
2022-08-27T06:58:58.805Z,17.80
2022-08-27T07:01:37.847Z,17.70
2022-08-27T07:04:08.527Z,17.70
2022-08-27T07:06:37.078Z,17.80
2022-08-27T07:09:05.406Z,17.80
2022-08-27T07:11:32.508Z,17.70
2022-08-27T07:14:00.357Z,17.70
2022-08-27T07:16:28.655Z,17.60
2022-08-27T07:18:57.667Z,17.60
2022-08-27T07:21:29.384Z,17.50
2022-08-27T07:23:59.604Z,17.50
2022-08-27T07:26:26.651Z,17.50
2022-08-27T07:28:53.651Z,17.50
2022-08-27T07:31:23.656Z,17.60
2022-08-27T07:33:52.693Z,17.50
2022-08-27T07:36:21.321Z,17.50
2022-08-27T07:39:00.727Z,17.50
2022-08-27T07:41:30.808Z,17.40
2022-08-27T07:44:18.718Z,17.50
2022-08-27T07:46:48.246Z,17.50
2022-08-27T07:49:17.588Z,17.50
2022-08-27T07:51:44.995Z,17.50
2022-08-27T07:54:11.982Z,17.60
2022-08-27T07:56:38.927Z,17.60
2022-08-27T07:59:05.900Z,17.60
2022-08-27T08:01:33.111Z,17.60
2022-08-27T08:04:00.228Z,17.60
2022-08-27T08:06:27.581Z,17.60
2022-08-27T08:08:55.075Z,17.60
2022-08-27T08:11:22.076Z,17.70
2022-08-27T08:13:49.071Z,17.80
2022-08-27T08:16:16.464Z,17.70
2022-08-27T08:18:43.340Z,17.60
2022-08-27T08:21:13.505Z,17.60
2022-08-27T08:23:41.391Z,17.60
2022-08-27T08:26:09.897Z,17.60
2022-08-27T08:28:37.185Z,17.60
2022-08-27T08:31:05.170Z,17.60
2022-08-27T08:33:33.129Z,17.70
2022-08-27T08:36:12.860Z,17.60
2022-08-27T08:38:40.759Z,17.60
2022-08-27T08:41:44.016Z,17.30
2022-08-27T08:44:23.373Z,17.30
2022-08-27T08:47:04.110Z,17.40
2022-08-27T08:49:36.855Z,17.60
2022-08-27T08:52:55.164Z,17.60
2022-08-27T08:55:39.128Z,17.60
2022-08-27T08:58:13.121Z,17.50
2022-08-27T09:00:42.932Z,17.50
2022-08-27T09:03:16.264Z,17.60
2022-08-27T09:05:52.748Z,17.60
2022-08-27T09:08:42.076Z,17.50
2022-08-27T09:11:31.762Z,17.70
2022-08-27T09:14:04.618Z,17.60
2022-08-27T09:16:32.592Z,17.70
2022-08-27T09:19:02.603Z,17.80
2022-08-27T09:21:45.122Z,17.80
2022-08-27T09:24:36.353Z,17.90
2022-08-27T09:27:03.644Z,17.80
2022-08-27T09:29:30.786Z,17.60
2022-08-27T09:32:06.179Z,17.70
2022-08-27T09:34:43.217Z,17.70
2022-08-27T09:37:23.171Z,17.70
2022-08-27T09:40:22.970Z,17.60
2022-08-27T09:43:09.321Z,17.80
2022-08-27T09:45:36.237Z,17.70
2022-08-27T09:48:11.481Z,17.60
2022-08-27T09:50:45.813Z,17.70
2022-08-27T09:53:31.096Z,17.50
2022-08-27T09:56:03.418Z,17.60
2022-08-27T09:58:47.487Z,17.80
2022-08-27T10:01:27.603Z,17.90
2022-08-27T10:04:13.001Z,17.90
2022-08-27T10:06:47.059Z,17.80
2022-08-27T10:09:35.551Z,17.80
2022-08-27T10:12:06.421Z,17.50
2022-08-27T10:14:39.732Z,17.40
2022-08-27T10:17:25.503Z,17.40
2022-08-27T10:20:42.345Z,17.50
2022-08-27T10:23:28.585Z,17.60
2022-08-27T10:26:08.072Z,17.80
2022-08-27T10:28:53.403Z,17.80
2022-08-27T10:31:38.994Z,17.80
2022-08-27T10:34:27.972Z,17.80
2022-08-27T10:37:15.819Z,17.80
2022-08-27T10:40:32.564Z,17.80
2022-08-27T10:43:02.507Z,17.80
2022-08-27T10:45:41.921Z,17.80
2022-08-27T10:48:26.070Z,17.80
2022-08-27T10:50:58.599Z,17.90
2022-08-27T10:53:33.213Z,17.90
2022-08-27T10:56:09.385Z,17.90
2022-08-27T10:58:51.321Z,17.90
2022-08-27T11:01:56.326Z,17.90
2022-08-27T11:04:29.789Z,17.80
2022-08-27T11:07:19.823Z,18.00
2022-08-27T11:10:28.323Z,17.90
2022-08-27T11:13:10.435Z,17.90
2022-08-27T11:15:42.631Z,17.90
2022-08-27T11:18:34.613Z,18.10
2022-08-27T11:21:14.459Z,18.30
2022-08-27T11:23:53.153Z,18.30
2022-08-27T11:26:20.066Z,18.50
2022-08-27T11:28:54.271Z,18.30
2022-08-27T11:31:40.782Z,18.30
2022-08-27T11:34:24.619Z,18.20
2022-08-27T11:37:13.221Z,18.10
2022-08-27T11:39:59.053Z,18.20
2022-08-27T11:42:41.508Z,18.30
2022-08-27T11:45:21.701Z,18.40
2022-08-27T11:47:54.491Z,18.70
2022-08-27T11:50:23.065Z,19.00
2022-08-27T11:52:58.377Z,18.90
2022-08-27T11:55:32.153Z,19.10
2022-08-27T11:58:28.603Z,19.10
2022-08-27T12:01:02.240Z,19.00
2022-08-27T12:03:35.567Z,19.10
2022-08-27T12:06:29.803Z,19.00
2022-08-27T12:09:12.914Z,18.70
2022-08-27T12:11:53.390Z,18.80
2022-08-27T12:14:32.390Z,18.70
2022-08-27T12:17:35.968Z,18.90
2022-08-27T12:20:21.631Z,18.90
2022-08-27T12:23:40.091Z,19.00
2022-08-27T12:26:51.072Z,19.00
2022-08-27T12:29:35.833Z,19.00
2022-08-27T12:32:40.566Z,19.20
2022-08-27T12:35:13.447Z,19.30
2022-08-27T12:37:57.029Z,19.20
2022-08-27T12:40:30.917Z,19.10
2022-08-27T12:43:14.887Z,19.40
2022-08-27T12:45:57.141Z,19.20
2022-08-27T12:48:28.142Z,19.20
2022-08-27T12:51:07.007Z,19.50
2022-08-27T12:54:13.454Z,19.50
2022-08-27T12:56:50.363Z,19.50
2022-08-27T12:59:38.713Z,19.50
2022-08-27T13:02:23.824Z,19.60
2022-08-27T13:04:51.200Z,19.40
2022-08-27T13:07:40.124Z,19.50
2022-08-27T13:10:16.987Z,19.60
2022-08-27T13:12:45.246Z,19.40
2022-08-27T13:15:16.099Z,19.50
2022-08-27T13:17:47.592Z,19.40
2022-08-27T13:20:24.869Z,19.30
2022-08-27T13:22:53.938Z,19.10
2022-08-27T13:25:21.117Z,19.10
2022-08-27T13:28:07.913Z,19.30
2022-08-27T13:30:38.159Z,19.50
2022-08-27T13:33:07.496Z,19.30
2022-08-27T13:35:35.582Z,19.10
2022-08-27T13:38:04.470Z,19.30
2022-08-27T13:40:37.714Z,19.40
2022-08-27T13:43:10.478Z,19.40
2022-08-27T13:45:42.385Z,19.60
2022-08-27T13:48:12.529Z,19.50
2022-08-27T13:50:50.218Z,19.50
2022-08-27T13:53:49.612Z,19.40
2022-08-27T13:56:41.152Z,19.50
2022-08-27T13:59:12.319Z,19.50
2022-08-27T14:01:53.767Z,19.30
2022-08-27T14:04:25.278Z,19.40
2022-08-27T14:06:52.856Z,19.40
2022-08-27T14:09:28.692Z,19.40
2022-08-27T14:12:04.444Z,19.60
2022-08-27T14:14:38.593Z,19.80
2022-08-27T14:17:08.876Z,19.60
2022-08-27T14:19:37.213Z,19.70
2022-08-27T14:22:04.529Z,19.80
2022-08-27T14:24:31.407Z,19.70
2022-08-27T14:27:08.444Z,19.60
2022-08-27T14:29:36.083Z,19.60
2022-08-27T14:32:03.432Z,19.80
2022-08-27T14:34:30.342Z,19.60
2022-08-27T14:36:58.091Z,19.80
2022-08-27T14:39:26.668Z,19.80
2022-08-27T14:41:54.582Z,19.80
2022-08-27T14:44:22.333Z,19.80
2022-08-27T14:46:49.535Z,19.90
2022-08-27T14:49:23.337Z,20.00
2022-08-27T14:51:50.415Z,20.00
2022-08-27T14:54:17.340Z,20.10
2022-08-27T14:56:44.669Z,20.50
2022-08-27T14:59:11.756Z,20.70
2022-08-27T15:01:39.375Z,20.40
2022-08-27T15:04:06.822Z,20.30
2022-08-27T15:06:34.330Z,20.40
2022-08-27T15:09:01.711Z,20.60
2022-08-27T15:11:31.264Z,20.70
2022-08-27T15:14:00.754Z,20.80
2022-08-27T15:16:33.565Z,20.90
2022-08-27T15:19:01.499Z,21.10
2022-08-27T15:21:30.391Z,20.90
2022-08-27T15:24:03.726Z,20.80
2022-08-27T15:26:30.792Z,20.80
2022-08-27T15:28:59.917Z,20.60
2022-08-27T15:31:29.992Z,20.80
2022-08-27T15:33:56.892Z,20.90
2022-08-27T15:36:23.716Z,20.90
2022-08-27T15:38:50.580Z,20.80
2022-08-27T15:41:17.786Z,20.60
2022-08-27T15:43:44.608Z,20.50
2022-08-27T15:46:11.545Z,20.60
2022-08-27T15:48:38.403Z,20.40
2022-08-27T15:51:08.407Z,20.20
2022-08-27T15:53:36.381Z,20.20
2022-08-27T15:56:06.041Z,20.10
2022-08-27T15:58:33.728Z,20.00
2022-08-27T16:01:07.590Z,19.90
2022-08-27T16:03:35.542Z,20.10
2022-08-27T16:06:04.766Z,20.10
2022-08-27T16:08:36.592Z,20.00
2022-08-27T16:11:06.134Z,20.20
2022-08-27T16:13:33.045Z,20.10
2022-08-27T16:16:01.640Z,20.10
2022-08-27T16:18:31.816Z,20.00
2022-08-27T16:21:00.493Z,20.00
2022-08-27T16:23:28.177Z,20.00
2022-08-27T16:25:56.051Z,20.20
2022-08-27T16:28:23.953Z,20.20
2022-08-27T16:30:52.920Z,20.20
2022-08-27T16:33:20.987Z,20.00
2022-08-27T16:35:48.413Z,20.00
2022-08-27T16:38:16.623Z,20.00
2022-08-27T16:40:50.395Z,20.00
2022-08-27T16:43:24.640Z,20.20
2022-08-27T16:45:53.889Z,20.20
2022-08-27T16:48:40.187Z,20.20
2022-08-27T16:51:10.624Z,20.10
2022-08-27T16:53:41.490Z,20.10
2022-08-27T16:56:09.441Z,20.10
2022-08-27T16:58:37.390Z,20.10
2022-08-27T17:01:09.336Z,20.00
2022-08-27T17:04:07.648Z,20.00
2022-08-27T17:06:35.251Z,20.00
2022-08-27T17:09:06.592Z,19.90
2022-08-27T17:11:35.610Z,19.90
2022-08-27T17:14:04.601Z,19.90
2022-08-27T17:16:34.244Z,19.90
2022-08-27T17:19:04.565Z,19.90
2022-08-27T17:21:33.016Z,20.00
2022-08-27T17:24:02.485Z,19.90
2022-08-27T17:26:30.920Z,20.00
2022-08-27T17:28:58.650Z,19.80
2022-08-27T17:31:33.106Z,19.80
2022-08-27T17:34:00.586Z,20.00
2022-08-27T17:36:29.353Z,19.90
2022-08-27T17:38:57.161Z,19.80
2022-08-27T17:41:34.091Z,19.80
2022-08-27T17:44:10.802Z,19.80
2022-08-27T17:46:37.646Z,19.80
2022-08-27T17:49:04.860Z,19.80
2022-08-27T17:51:31.888Z,19.70
2022-08-27T17:54:01.248Z,19.70
2022-08-27T17:56:29.242Z,19.70
2022-08-27T17:58:56.561Z,19.80
2022-08-27T18:01:30.400Z,19.70
2022-08-27T18:03:58.971Z,19.70
2022-08-27T18:06:27.730Z,19.80
2022-08-27T18:08:54.974Z,19.70
2022-08-27T18:11:21.954Z,19.70
2022-08-27T18:13:53.966Z,19.90
2022-08-27T18:16:21.659Z,19.70
2022-08-27T18:18:48.645Z,19.60
2022-08-27T18:21:20.807Z,19.60
2022-08-27T18:23:53.017Z,19.60
2022-08-27T18:26:21.586Z,19.50
2022-08-27T18:28:49.145Z,19.70
2022-08-27T18:31:18.760Z,19.60
2022-08-27T18:33:46.614Z,19.60
2022-08-27T18:36:14.920Z,19.50
2022-08-27T18:38:41.888Z,19.50
2022-08-27T18:41:09.249Z,19.50
2022-08-27T18:43:36.489Z,19.50
2022-08-27T18:46:04.606Z,19.50
2022-08-27T18:48:32.957Z,19.50
2022-08-27T18:51:02.815Z,19.40
2022-08-27T18:53:32.989Z,19.40
2022-08-27T18:56:00.902Z,19.40
2022-08-27T18:58:28.220Z,19.40
2022-08-27T19:00:59.018Z,19.40
2022-08-27T19:03:29.652Z,19.50
2022-08-27T19:05:56.890Z,19.40
2022-08-27T19:08:24.923Z,19.40
2022-08-27T19:10:52.006Z,19.40
2022-08-27T19:13:18.837Z,19.40
2022-08-27T19:16:13.583Z,19.50
2022-08-27T19:18:41.909Z,19.40
2022-08-27T19:21:09.197Z,19.40
2022-08-27T19:23:36.764Z,19.40
2022-08-27T19:26:04.848Z,19.40
2022-08-27T19:28:41.269Z,19.20
2022-08-27T19:31:08.790Z,19.20
2022-08-27T19:33:36.372Z,19.20
2022-08-27T19:36:04.406Z,19.30
2022-08-27T19:38:32.628Z,19.30
2022-08-27T19:41:00.677Z,19.20
2022-08-27T19:43:27.554Z,19.10
2022-08-27T19:45:56.416Z,19.10
2022-08-27T19:48:23.904Z,19.10
2022-08-27T19:50:50.997Z,19.10
2022-08-27T19:53:18.004Z,19.10
2022-08-27T19:55:46.133Z,19.10
2022-08-27T19:58:15.397Z,19.10
2022-08-27T20:00:43.623Z,19.10
2022-08-27T20:03:11.270Z,19.20
2022-08-27T20:05:38.445Z,19.10
2022-08-27T20:08:06.304Z,19.10
2022-08-27T20:10:36.654Z,19.20
2022-08-27T20:13:04.912Z,19.30
2022-08-27T20:15:32.116Z,19.30
2022-08-27T20:17:59.750Z,19.20
2022-08-27T20:20:28.157Z,19.10
2022-08-27T20:22:55.935Z,19.10
2022-08-27T20:25:23.428Z,19.00
2022-08-27T20:27:51.366Z,19.00
2022-08-27T20:30:20.317Z,19.00
2022-08-27T20:32:47.276Z,19.00
2022-08-27T20:35:15.755Z,19.10
2022-08-27T20:37:43.523Z,19.00
2022-08-27T20:40:14.868Z,19.10
2022-08-27T20:42:41.792Z,19.00
2022-08-27T20:45:12.211Z,19.00
2022-08-27T20:47:40.534Z,19.10
2022-08-27T20:50:07.721Z,19.20
2022-08-27T20:52:35.690Z,19.00
2022-08-27T20:55:03.240Z,19.00
2022-08-27T20:57:30.388Z,18.90
2022-08-27T21:00:15.869Z,18.90
2022-08-27T21:02:42.776Z,18.90
2022-08-27T21:05:13.034Z,19.00
2022-08-27T21:07:40.558Z,19.10
2022-08-27T21:10:07.896Z,19.00
2022-08-27T21:12:34.899Z,19.00
2022-08-27T21:15:03.989Z,19.00
2022-08-27T21:17:31.312Z,19.10
2022-08-27T21:19:58.236Z,19.20
2022-08-27T21:22:25.940Z,19.20
2022-08-27T21:24:53.648Z,19.30
2022-08-27T21:27:21.782Z,19.20
2022-08-27T21:29:49.356Z,19.00
2022-08-27T21:32:16.948Z,18.90
2022-08-27T21:34:43.872Z,18.90
2022-08-27T21:37:13.661Z,18.80
2022-08-27T21:39:42.461Z,18.80
2022-08-27T21:42:10.626Z,18.80
2022-08-27T21:44:38.187Z,18.80
2022-08-27T21:47:06.100Z,18.80
2022-08-27T21:49:33.714Z,18.80
2022-08-27T21:52:03.566Z,18.80
2022-08-27T21:54:37.966Z,18.80
2022-08-27T21:57:05.907Z,18.80
2022-08-27T21:59:38.629Z,18.80
2022-08-27T22:02:22.934Z,18.80
2022-08-27T22:04:52.415Z,18.80
2022-08-27T22:07:19.298Z,18.80
2022-08-27T22:09:46.587Z,18.80
2022-08-27T22:12:13.505Z,18.80
2022-08-27T22:14:41.202Z,18.80
2022-08-27T22:17:08.180Z,18.80
2022-08-27T22:19:35.093Z,18.80
2022-08-27T22:22:01.977Z,18.80
2022-08-27T22:24:28.854Z,18.80
2022-08-27T22:26:55.678Z,18.80
2022-08-27T22:29:24.512Z,18.70
2022-08-27T22:31:51.960Z,18.70
2022-08-27T22:34:18.870Z,18.70
2022-08-27T22:36:45.760Z,18.70
2022-08-27T22:39:12.580Z,18.70
2022-08-27T22:41:40.312Z,18.70
2022-08-27T22:44:11.292Z,18.80
2022-08-27T22:46:38.207Z,18.80
2022-08-27T22:49:05.160Z,18.80
2022-08-27T22:51:32.344Z,18.80
2022-08-27T22:53:59.172Z,18.70
2022-08-27T22:56:26.067Z,18.70
2022-08-27T22:58:52.887Z,18.70
2022-08-27T23:01:21.555Z,18.80
2022-08-27T23:03:48.733Z,18.80
2022-08-27T23:06:15.720Z,18.90
2022-08-27T23:08:42.632Z,18.90
2022-08-27T23:11:09.486Z,18.80
2022-08-27T23:13:36.435Z,18.80
2022-08-27T23:16:03.623Z,18.70
2022-08-27T23:18:30.617Z,18.70
2022-08-27T23:20:57.547Z,18.70
2022-08-27T23:23:29.870Z,18.70
2022-08-27T23:26:18.007Z,18.70
2022-08-27T23:28:45.248Z,18.60
2022-08-27T23:31:13.089Z,18.60
2022-08-27T23:33:40.657Z,18.50
2022-08-27T23:36:07.928Z,18.60
2022-08-27T23:38:34.848Z,18.60
2022-08-27T23:41:02.002Z,18.60
2022-08-27T23:43:29.758Z,18.70
2022-08-27T23:45:57.327Z,18.60
2022-08-27T23:48:24.778Z,18.50
2022-08-27T23:50:52.064Z,18.50
2022-08-27T23:53:19.045Z,18.50
2022-08-27T23:55:45.957Z,18.50
2022-08-27T23:58:13.076Z,18.40
